createdAt,value
2023-03-24T00:01:05.604Z,2.70
2023-03-24T00:03:34.394Z,3.40
2023-03-24T00:06:04.536Z,2.90
2023-03-24T00:08:37.697Z,3.15
2023-03-24T00:11:08.910Z,2.97
2023-03-24T00:13:38.096Z,2.88
2023-03-24T00:16:09.371Z,3.00
2023-03-24T00:18:39.217Z,3.13
2023-03-24T00:21:08.990Z,3.13
2023-03-24T00:23:36.967Z,2.92
2023-03-24T00:26:08.910Z,3.15
2023-03-24T00:28:39.080Z,3.47
2023-03-24T00:31:09.643Z,3.63
2023-03-24T00:33:40.328Z,3.72
2023-03-24T00:36:11.951Z,3.58
2023-03-24T00:38:41.824Z,3.70
2023-03-24T00:41:11.618Z,3.55
2023-03-24T00:43:39.832Z,2.50
2023-03-24T00:46:14.069Z,2.53
2023-03-24T00:48:42.511Z,2.60
2023-03-24T00:51:11.014Z,2.42
2023-03-24T00:53:43.932Z,2.65
2023-03-24T00:56:15.650Z,2.20
2023-03-24T00:58:43.554Z,2.10
2023-03-24T01:01:12.807Z,2.03
2023-03-24T01:03:50.698Z,2.38
2023-03-24T01:06:19.125Z,2.15
2023-03-24T01:08:49.175Z,2.20
2023-03-24T01:11:17.898Z,2.08
2023-03-24T01:13:45.870Z,2.65
2023-03-24T01:16:15.451Z,2.10
2023-03-24T01:18:43.491Z,2.75
2023-03-24T01:21:12.839Z,2.60
2023-03-24T01:23:42.865Z,2.28
2023-03-24T01:26:11.974Z,2.55
2023-03-24T01:28:43.640Z,1.80
2023-03-24T01:31:12.356Z,1.90
2023-03-24T01:33:41.765Z,1.92
2023-03-24T01:36:10.332Z,1.98
2023-03-24T01:38:39.060Z,1.60
2023-03-24T01:41:08.327Z,2.17
2023-03-24T01:43:37.276Z,1.83
2023-03-24T01:46:19.709Z,1.92
2023-03-24T01:48:53.046Z,1.60
2023-03-24T01:51:24.698Z,1.50
2023-03-24T01:53:56.691Z,1.40
2023-03-24T01:56:26.260Z,2.03
2023-03-24T01:58:58.707Z,1.77
2023-03-24T02:01:30.007Z,2.03
2023-03-24T02:04:03.882Z,1.83
2023-03-24T02:06:33.273Z,1.60
2023-03-24T02:09:02.299Z,1.80
2023-03-24T02:11:33.468Z,1.27
2023-03-24T02:14:01.389Z,2.00
2023-03-24T02:16:43.486Z,1.48
2023-03-24T02:19:53.124Z,1.40
2023-03-24T02:23:06.586Z,1.75
2023-03-24T02:26:19.408Z,1.40
2023-03-24T02:28:56.724Z,1.40
2023-03-24T02:32:04.286Z,2.10
2023-03-24T02:34:55.078Z,1.70
2023-03-24T02:38:00.640Z,1.40
2023-03-24T02:40:37.098Z,1.45
2023-03-24T02:43:17.560Z,1.20
2023-03-24T02:45:55.655Z,1.52
2023-03-24T02:48:30.229Z,1.63
2023-03-24T02:51:06.829Z,1.70
2023-03-24T02:53:43.045Z,1.40
2023-03-24T02:56:16.248Z,1.52
2023-03-24T02:58:50.596Z,1.60
2023-03-24T03:01:32.144Z,1.40
2023-03-24T03:04:03.259Z,2.10
2023-03-24T03:06:34.383Z,1.60
2023-03-24T03:09:06.649Z,1.60
2023-03-24T03:11:36.385Z,1.40
2023-03-24T03:14:07.772Z,1.50
2023-03-24T03:16:41.251Z,1.88
2023-03-24T03:19:17.878Z,1.63
2023-03-24T03:21:49.502Z,1.67
2023-03-24T03:24:27.059Z,1.50
2023-03-24T03:27:01.141Z,1.60
2023-03-24T03:29:34.002Z,1.35
2023-03-24T03:32:07.804Z,1.92
2023-03-24T03:34:41.645Z,1.77
2023-03-24T03:37:14.476Z,1.80
2023-03-24T03:39:48.993Z,1.50
2023-03-24T03:42:18.591Z,1.70
2023-03-24T03:44:46.760Z,1.60
2023-03-24T03:47:15.418Z,1.58
2023-03-24T03:49:44.129Z,1.58
2023-03-24T03:52:12.071Z,2.28
2023-03-24T03:54:42.859Z,1.63
2023-03-24T03:57:12.009Z,1.77
2023-03-24T03:59:41.562Z,1.85
2023-03-24T04:02:27.877Z,2.10
2023-03-24T04:05:17.817Z,2.42
2023-03-24T04:08:14.472Z,2.17
2023-03-24T04:11:17.735Z,2.03
2023-03-24T04:13:55.677Z,1.98
2023-03-24T04:16:35.220Z,2.00
2023-03-24T04:19:23.269Z,1.95
2023-03-24T04:22:07.308Z,2.30
2023-03-24T04:24:49.891Z,2.03
2023-03-24T04:27:27.127Z,2.38
2023-03-24T04:30:04.245Z,2.58
2023-03-24T04:32:41.419Z,3.28
2023-03-24T04:35:14.195Z,2.65
2023-03-24T04:37:42.894Z,2.65
2023-03-24T04:40:14.779Z,2.75
2023-03-24T04:42:45.308Z,2.78
2023-03-24T04:45:13.685Z,3.03
2023-03-24T04:47:48.084Z,3.42
2023-03-24T04:50:30.274Z,3.28
2023-03-24T04:52:58.822Z,3.50
2023-03-24T04:55:44.245Z,3.10
2023-03-24T04:58:12.201Z,4.53
2023-03-24T05:00:39.899Z,3.33
2023-03-24T05:03:09.310Z,3.22
2023-03-24T05:05:37.075Z,4.30
2023-03-24T05:08:04.961Z,3.28
2023-03-24T05:10:32.666Z,3.90
2023-03-24T05:13:00.565Z,2.95
2023-03-24T05:15:28.319Z,3.88
2023-03-24T05:17:56.748Z,3.70
2023-03-24T05:20:26.969Z,3.13
2023-03-24T05:22:55.024Z,3.10
2023-03-24T05:25:24.269Z,3.00
2023-03-24T05:27:52.342Z,3.25
2023-03-24T05:30:20.683Z,3.00
2023-03-24T05:32:48.519Z,3.55
2023-03-24T05:35:16.469Z,5.10
2023-03-24T05:37:45.660Z,3.50
2023-03-24T05:40:13.629Z,4.32
2023-03-24T05:42:42.984Z,4.40
2023-03-24T05:45:12.466Z,4.07
2023-03-24T05:47:40.280Z,3.60
2023-03-24T05:50:08.815Z,4.07
2023-03-24T05:52:36.786Z,3.70
2023-03-24T05:55:07.478Z,3.80
2023-03-24T05:57:36.539Z,4.28
2023-03-24T06:00:07.835Z,4.05
2023-03-24T06:02:35.602Z,4.18
2023-03-24T06:05:03.837Z,3.78
2023-03-24T06:07:32.169Z,3.55
2023-03-24T06:10:02.798Z,2.90
2023-03-24T06:12:32.070Z,3.88
2023-03-24T06:15:00.788Z,4.05
2023-03-24T06:17:30.956Z,3.75
2023-03-24T06:20:05.087Z,4.93
2023-03-24T06:22:34.744Z,3.80
2023-03-24T06:25:02.580Z,4.15
2023-03-24T06:27:31.641Z,4.65
2023-03-24T06:29:59.765Z,4.78
2023-03-24T06:32:27.923Z,5.60
2023-03-24T06:34:56.083Z,4.93
2023-03-24T06:37:23.954Z,5.43
2023-03-24T06:39:52.099Z,6.55
2023-03-24T06:42:19.834Z,5.18
2023-03-24T06:44:48.982Z,6.63
2023-03-24T06:47:17.116Z,5.95
2023-03-24T06:49:46.321Z,5.22
2023-03-24T06:52:14.104Z,6.15
2023-03-24T06:54:42.188Z,6.18
2023-03-24T06:57:09.960Z,5.80
2023-03-24T06:59:37.793Z,5.80
2023-03-24T07:02:07.177Z,6.15
2023-03-24T07:04:36.419Z,5.90
2023-03-24T07:07:22.474Z,5.20
2023-03-24T07:09:52.081Z,5.15
2023-03-24T07:12:19.816Z,5.75
2023-03-24T07:14:47.533Z,5.00
2023-03-24T07:17:16.643Z,5.53
2023-03-24T07:19:45.460Z,5.28
2023-03-24T07:22:13.230Z,5.32
2023-03-24T07:24:40.922Z,4.80
2023-03-24T07:27:09.070Z,4.63
2023-03-24T07:29:37.311Z,5.13
2023-03-24T07:32:05.045Z,4.43
2023-03-24T07:34:35.437Z,4.78
2023-03-24T07:37:03.290Z,4.45
2023-03-24T07:39:31.076Z,4.85
2023-03-24T07:41:58.854Z,4.15
2023-03-24T07:44:27.367Z,4.35
2023-03-24T07:46:55.185Z,4.45
2023-03-24T07:49:22.999Z,4.47
2023-03-24T07:51:52.072Z,4.22
2023-03-24T07:54:19.970Z,4.30
2023-03-24T07:56:47.679Z,5.13
2023-03-24T07:59:15.512Z,4.60
2023-03-24T08:01:43.342Z,4.47
2023-03-24T08:04:12.980Z,4.78
2023-03-24T08:06:41.532Z,4.00
2023-03-24T08:09:11.737Z,4.85
2023-03-24T08:11:39.691Z,5.30
2023-03-24T08:14:07.606Z,4.65
2023-03-24T08:16:35.342Z,4.50
2023-03-24T08:19:03.159Z,3.47
2023-03-24T08:21:30.950Z,4.50
2023-03-24T08:23:58.708Z,3.88
2023-03-24T08:26:27.875Z,3.10
2023-03-24T08:28:55.653Z,3.00
2023-03-24T08:31:23.480Z,2.75
2023-03-24T08:33:51.328Z,2.70
2023-03-24T08:36:19.100Z,2.80
2023-03-24T08:38:48.099Z,2.70
2023-03-24T08:41:16.764Z,2.80
2023-03-24T08:43:46.084Z,2.42
2023-03-24T08:46:15.265Z,3.00
2023-03-24T08:48:43.776Z,2.38
2023-03-24T08:51:13.574Z,2.15
2023-03-24T08:53:41.393Z,1.90
2023-03-24T08:56:09.542Z,2.90
2023-03-24T08:58:37.334Z,2.08
2023-03-24T09:01:09.251Z,2.22
2023-03-24T09:03:40.476Z,2.75
2023-03-24T09:06:11.248Z,2.40
2023-03-24T09:08:41.240Z,2.80
2023-03-24T09:11:16.294Z,2.40
2023-03-24T09:13:46.441Z,2.25
2023-03-24T09:16:18.608Z,2.60
2023-03-24T09:18:48.679Z,2.60
2023-03-24T09:21:18.666Z,2.42
2023-03-24T09:23:48.266Z,2.80
2023-03-24T09:26:18.038Z,2.15
2023-03-24T09:28:47.675Z,2.20
2023-03-24T09:31:18.869Z,2.45
2023-03-24T09:33:48.841Z,2.22
2023-03-24T09:36:19.338Z,2.45
2023-03-24T09:38:49.204Z,2.15
2023-03-24T09:41:20.713Z,2.42
2023-03-24T09:43:54.681Z,2.63
2023-03-24T09:46:30.999Z,2.42
2023-03-24T09:49:00.755Z,2.50
2023-03-24T09:51:31.979Z,2.33
2023-03-24T09:54:14.036Z,2.67
2023-03-24T09:56:49.338Z,2.55
2023-03-24T09:59:21.451Z,2.15
2023-03-24T10:01:50.636Z,2.30
2023-03-24T10:04:20.983Z,2.33
2023-03-24T10:06:53.272Z,1.90
2023-03-24T10:09:28.603Z,2.22
2023-03-24T10:12:12.089Z,2.25
2023-03-24T10:14:51.579Z,2.20
2023-03-24T10:17:28.249Z,2.22
2023-03-24T10:20:01.502Z,2.17
2023-03-24T10:22:37.213Z,2.08
2023-03-24T10:25:13.951Z,2.20
2023-03-24T10:27:47.277Z,2.70
2023-03-24T10:30:18.226Z,2.80
2023-03-24T10:32:47.562Z,1.55
2023-03-24T10:35:22.880Z,1.88
2023-03-24T10:37:52.558Z,1.63
2023-03-24T10:40:23.623Z,1.55
2023-03-24T10:43:06.921Z,2.03
2023-03-24T10:45:40.558Z,1.58
2023-03-24T10:48:10.370Z,1.50
2023-03-24T10:50:43.482Z,1.70
2023-03-24T10:53:19.040Z,1.80
2023-03-24T10:55:48.172Z,1.77
2023-03-24T10:58:22.005Z,2.00
2023-03-24T11:00:50.423Z,2.28
2023-03-24T11:03:27.588Z,2.60
2023-03-24T11:06:00.161Z,3.13
2023-03-24T11:08:33.304Z,3.15
2023-03-24T11:11:01.341Z,2.70
2023-03-24T11:13:32.260Z,2.13
2023-03-24T11:16:11.269Z,2.40
2023-03-24T11:18:56.085Z,2.00
2023-03-24T11:21:23.942Z,2.03
2023-03-24T11:23:51.792Z,1.27
2023-03-24T11:26:21.996Z,1.10
2023-03-24T11:28:53.527Z,0.90
2023-03-24T11:31:30.612Z,0.65
2023-03-24T11:34:02.706Z,0.65
2023-03-24T11:36:55.426Z,0.60
2023-03-24T11:39:25.607Z,0.88
2023-03-24T11:42:02.674Z,0.82
2023-03-24T11:44:33.359Z,0.75
2023-03-24T11:47:05.632Z,0.85
2023-03-24T11:49:39.570Z,0.75
2023-03-24T11:52:22.050Z,0.80
2023-03-24T11:54:49.864Z,0.50
2023-03-24T11:57:25.731Z,1.50
2023-03-24T12:02:41.580Z,0.45
2023-03-24T12:05:27.631Z,0.57
2023-03-24T12:08:08.888Z,0.65
2023-03-24T12:10:45.963Z,0.77
2023-03-24T12:13:29.972Z,3.42
2023-03-24T12:16:12.690Z,0.75
2023-03-24T12:18:52.668Z,0.60
2023-03-24T12:21:32.102Z,0.60
2023-03-24T12:24:02.356Z,1.10
2023-03-24T12:26:31.375Z,0.70
2023-03-24T12:29:17.441Z,1.42
2023-03-24T12:32:06.712Z,1.20
2023-03-24T12:34:56.879Z,0.80
2023-03-24T12:37:35.893Z,0.88
2023-03-24T12:40:21.860Z,0.77
2023-03-24T12:42:59.739Z,0.60
2023-03-24T12:45:38.815Z,0.82
2023-03-24T12:48:26.659Z,0.60
2023-03-24T12:51:07.394Z,0.70
2023-03-24T12:53:56.810Z,0.50
2023-03-24T12:56:32.831Z,0.82
2023-03-24T12:59:05.233Z,0.70
2023-03-24T13:01:36.330Z,0.93
2023-03-24T13:04:09.763Z,0.60
2023-03-24T13:06:44.848Z,0.90
2023-03-24T13:09:24.768Z,0.73
2023-03-24T13:11:58.704Z,2.08
2023-03-24T13:14:32.118Z,0.80
2023-03-24T13:17:06.956Z,0.73
2023-03-24T13:19:36.900Z,0.63
2023-03-24T13:22:07.649Z,1.02
2023-03-24T13:24:36.728Z,0.65
2023-03-24T13:27:13.263Z,0.90
2023-03-24T13:30:15.815Z,0.77
2023-03-24T13:32:46.803Z,1.30
2023-03-24T13:35:23.320Z,1.55
2023-03-24T13:37:53.926Z,1.00
2023-03-24T13:40:25.415Z,1.10
2023-03-24T13:42:57.309Z,0.95
2023-03-24T13:45:32.536Z,0.90
2023-03-24T13:48:18.157Z,1.33
2023-03-24T13:50:55.136Z,0.98
2023-03-24T13:53:31.853Z,0.75
2023-03-24T13:56:02.030Z,0.90
2023-03-24T13:58:47.816Z,0.93
2023-03-24T14:01:32.700Z,0.77
2023-03-24T14:04:23.217Z,1.30
2023-03-24T14:06:52.122Z,0.90
2023-03-24T14:09:22.777Z,1.10
2023-03-24T14:12:10.484Z,0.80
2023-03-24T14:15:14.555Z,0.90
2023-03-24T14:17:44.733Z,0.73
2023-03-24T14:20:31.524Z,1.02
2023-03-24T14:22:59.592Z,0.80
2023-03-24T14:25:30.594Z,0.82
2023-03-24T14:28:18.743Z,1.20
2023-03-24T14:31:03.040Z,1.20
2023-03-24T14:33:31.543Z,1.02
2023-03-24T14:36:04.907Z,1.20
2023-03-24T14:38:36.996Z,0.93
2023-03-24T14:41:13.540Z,1.35
2023-03-24T14:43:57.152Z,1.17
2023-03-24T14:46:37.771Z,1.20
2023-03-24T14:49:12.866Z,0.90
2023-03-24T14:51:44.326Z,0.80
2023-03-24T14:54:16.804Z,0.90
2023-03-24T14:56:48.375Z,0.95
2023-03-24T14:59:28.518Z,1.00
2023-03-24T15:02:02.112Z,1.42
2023-03-24T15:04:29.945Z,1.08
2023-03-24T15:06:57.700Z,0.90
2023-03-24T15:09:25.617Z,0.65
2023-03-24T15:11:53.819Z,1.60
2023-03-24T15:14:25.721Z,1.20
2023-03-24T15:16:59.156Z,1.20
2023-03-24T15:19:29.034Z,1.33
2023-03-24T15:22:02.599Z,1.65
2023-03-24T15:24:35.578Z,0.95
2023-03-24T15:27:33.112Z,1.17
2023-03-24T15:30:02.537Z,0.82
2023-03-24T15:32:32.771Z,1.02
2023-03-24T15:35:05.398Z,1.17
2023-03-24T15:37:35.545Z,1.33
2023-03-24T15:40:15.785Z,1.63
2023-03-24T15:42:46.178Z,1.17
2023-03-24T15:45:22.403Z,1.20
2023-03-24T15:47:52.459Z,1.20
2023-03-24T15:50:32.099Z,1.48
2023-03-24T15:53:01.540Z,1.25
2023-03-24T15:55:34.633Z,2.00
2023-03-24T15:58:15.360Z,1.00
2023-03-24T16:00:45.712Z,1.25
2023-03-24T16:03:17.536Z,1.35
2023-03-24T16:05:51.073Z,2.53
2023-03-24T16:08:27.462Z,1.58
2023-03-24T16:11:00.399Z,1.58
2023-03-24T16:13:28.613Z,1.15
2023-03-24T16:16:00.736Z,1.00
2023-03-24T16:18:32.917Z,1.55
2023-03-24T16:21:01.392Z,1.42
2023-03-24T16:23:29.640Z,1.40
2023-03-24T16:25:57.406Z,1.27
2023-03-24T16:28:25.700Z,1.20
2023-03-24T16:31:00.935Z,1.20
2023-03-24T16:33:30.260Z,0.98
2023-03-24T16:35:58.267Z,1.00
2023-03-24T16:38:26.192Z,1.13
2023-03-24T16:40:54.975Z,1.13
2023-03-24T16:43:23.252Z,1.48
2023-03-24T16:45:52.472Z,1.00
2023-03-24T16:48:21.740Z,1.27
2023-03-24T16:50:53.250Z,1.40
2023-03-24T16:53:21.174Z,1.20
2023-03-24T16:55:49.269Z,1.15
2023-03-24T16:58:18.705Z,1.63
2023-03-24T17:00:49.246Z,1.38
2023-03-24T17:03:17.898Z,2.00
2023-03-24T17:05:49.241Z,0.95
2023-03-24T17:08:18.596Z,1.05
2023-03-24T17:10:49.960Z,1.33
2023-03-24T17:13:20.095Z,1.80
2023-03-24T17:15:48.521Z,1.42
2023-03-24T17:18:17.089Z,1.98
2023-03-24T17:20:45.118Z,1.20
2023-03-24T17:23:17.790Z,1.00
2023-03-24T17:25:46.017Z,1.23
2023-03-24T17:28:14.891Z,1.35
2023-03-24T17:30:43.413Z,1.38
2023-03-24T17:33:14.109Z,1.05
2023-03-24T17:35:44.523Z,0.93
2023-03-24T17:38:16.292Z,1.13
2023-03-24T17:40:44.508Z,1.00
2023-03-24T17:43:12.307Z,1.00
2023-03-24T17:45:41.733Z,1.23
2023-03-24T17:48:09.563Z,1.00
2023-03-24T17:50:37.460Z,1.00
2023-03-24T17:53:05.285Z,1.10
2023-03-24T17:55:34.421Z,0.95
2023-03-24T17:58:02.393Z,1.10
2023-03-24T18:00:30.508Z,1.13
2023-03-24T18:02:58.624Z,1.42
2023-03-24T18:05:27.084Z,1.40
2023-03-24T18:07:54.798Z,1.60
2023-03-24T18:10:22.616Z,1.40
2023-03-24T18:12:52.538Z,1.60
2023-03-24T18:15:20.413Z,1.95
2023-03-24T18:17:48.324Z,1.60
2023-03-24T18:20:16.555Z,1.65
2023-03-24T18:22:44.382Z,1.85
2023-03-24T18:25:14.297Z,1.25
2023-03-24T18:27:43.286Z,1.60
2023-03-24T18:30:14.203Z,2.00
2023-03-24T18:32:42.901Z,1.77
2023-03-24T18:35:15.988Z,1.40
2023-03-24T18:37:44.185Z,1.77
2023-03-24T18:40:14.407Z,1.85
2023-03-24T18:42:42.180Z,1.70
2023-03-24T18:45:17.217Z,1.92
2023-03-24T18:47:45.758Z,1.55
2023-03-24T18:50:13.745Z,1.67
2023-03-24T18:52:41.525Z,1.63
2023-03-24T18:55:10.924Z,1.85
2023-03-24T18:57:38.658Z,1.35
2023-03-24T19:00:09.525Z,1.48
2023-03-24T19:02:38.717Z,1.50
2023-03-24T19:05:07.255Z,2.10
2023-03-24T19:07:37.052Z,1.45
2023-03-24T19:10:05.393Z,1.38
2023-03-24T19:12:33.360Z,2.33
2023-03-24T19:15:01.517Z,2.13
2023-03-24T19:17:29.342Z,1.60
2023-03-24T19:19:58.755Z,1.60
2023-03-24T19:22:27.173Z,1.52
2023-03-24T19:24:55.600Z,1.40
2023-03-24T19:27:23.469Z,1.60
2023-03-24T19:29:51.278Z,1.45
2023-03-24T19:32:19.048Z,1.33
2023-03-24T19:34:47.932Z,1.23
2023-03-24T19:37:17.446Z,1.63
2023-03-24T19:39:46.024Z,1.63
2023-03-24T19:42:13.795Z,1.75
2023-03-24T19:44:41.711Z,1.40
2023-03-24T19:47:09.595Z,1.33
2023-03-24T19:49:37.515Z,1.40
2023-03-24T19:52:06.372Z,1.80
2023-03-24T19:54:35.960Z,1.63
2023-03-24T19:57:04.187Z,1.40
2023-03-24T19:59:32.372Z,1.40
2023-03-24T20:02:00.707Z,1.73
2023-03-24T20:04:28.550Z,1.70
2023-03-24T20:06:58.488Z,1.40
2023-03-24T20:09:26.339Z,1.60
2023-03-24T20:11:55.673Z,1.73
2023-03-24T20:14:23.852Z,2.83
2023-03-24T20:16:51.675Z,2.53
2023-03-24T20:19:19.448Z,2.30
2023-03-24T20:21:47.277Z,2.17
2023-03-24T20:24:15.696Z,1.70
2023-03-24T20:26:43.511Z,1.95
2023-03-24T20:29:12.742Z,1.83
2023-03-24T20:31:41.746Z,2.15
2023-03-24T20:34:11.088Z,2.05
2023-03-24T20:36:41.184Z,1.88
2023-03-24T20:39:09.387Z,1.88
2023-03-24T20:41:37.157Z,1.30
2023-03-24T20:44:05.215Z,1.80
2023-03-24T20:46:34.647Z,1.70
2023-03-24T20:49:02.630Z,1.90
2023-03-24T20:51:30.513Z,1.83
2023-03-24T20:53:58.522Z,1.67
2023-03-24T20:56:26.512Z,1.30
2023-03-24T20:58:54.727Z,1.67
2023-03-24T21:01:23.929Z,1.60
2023-03-24T21:03:56.801Z,1.40
2023-03-24T21:08:57.731Z,1.20
2023-03-24T21:11:25.667Z,1.73
2023-03-24T21:13:53.750Z,1.67
2023-03-24T21:16:21.573Z,1.40
2023-03-24T21:18:49.574Z,2.25
2023-03-24T21:21:18.732Z,1.45
2023-03-24T21:23:46.527Z,1.40
2023-03-24T21:26:16.803Z,1.60
2023-03-24T21:28:45.234Z,0.88
2023-03-24T21:31:17.918Z,1.48
2023-03-24T21:33:45.988Z,1.48
2023-03-24T21:36:14.193Z,1.63
2023-03-24T21:38:43.464Z,4.65
2023-03-24T21:41:11.672Z,3.08
2023-03-24T21:43:40.322Z,2.20
2023-03-24T21:46:14.676Z,2.10
2023-03-24T21:48:51.186Z,3.33
2023-03-24T21:51:21.128Z,3.45
2023-03-24T21:53:50.590Z,2.80
2023-03-24T21:56:20.139Z,2.60
2023-03-24T21:58:48.188Z,4.45
2023-03-24T22:01:16.082Z,2.60
2023-03-24T22:03:44.000Z,2.35
2023-03-24T22:06:11.834Z,2.17
2023-03-24T22:08:43.354Z,1.70
2023-03-24T22:11:15.312Z,1.70
2023-03-24T22:13:43.319Z,2.28
2023-03-24T22:16:11.397Z,1.70
2023-03-24T22:18:39.172Z,1.90
2023-03-24T22:21:09.303Z,1.50
2023-03-24T22:23:39.254Z,1.70
2023-03-24T22:26:09.764Z,1.90
2023-03-24T22:28:40.117Z,1.75
2023-03-24T22:31:09.509Z,2.53
2023-03-24T22:33:38.181Z,2.47
2023-03-24T22:36:07.670Z,2.63
2023-03-24T22:38:36.089Z,2.15
2023-03-24T22:41:06.297Z,1.55
2023-03-24T22:43:34.874Z,1.63
2023-03-24T22:46:04.462Z,1.98
2023-03-24T22:48:32.427Z,2.00
2023-03-24T22:51:00.340Z,2.30
2023-03-24T22:53:28.058Z,1.67
2023-03-24T22:55:55.851Z,1.40
2023-03-24T22:58:23.713Z,2.60
2023-03-24T23:00:54.997Z,1.70
2023-03-24T23:03:24.329Z,1.85
2023-03-24T23:05:52.471Z,1.70
2023-03-24T23:08:20.468Z,1.98
2023-03-24T23:10:48.783Z,1.65
2023-03-24T23:13:17.517Z,2.00
2023-03-24T23:15:45.306Z,1.90
2023-03-24T23:18:13.070Z,1.80
2023-03-24T23:20:42.742Z,1.42
2023-03-24T23:23:11.020Z,1.25
2023-03-24T23:25:40.784Z,1.75
2023-03-24T23:28:10.732Z,1.05
2023-03-24T23:30:39.428Z,1.13
2023-03-24T23:33:07.280Z,1.20
2023-03-24T23:35:37.201Z,1.38
2023-03-24T23:38:06.560Z,1.20
2023-03-24T23:40:34.380Z,1.40
2023-03-24T23:43:03.108Z,1.35
2023-03-24T23:45:30.914Z,1.55
2023-03-24T23:47:58.769Z,1.10
2023-03-24T23:50:27.971Z,0.80
2023-03-24T23:52:56.211Z,1.30
2023-03-24T23:55:26.619Z,0.90
2023-03-24T23:57:54.716Z,0.77
